createdAt,value
2024-04-19T00:03:11.462Z,3.77
2024-04-19T00:06:05.175Z,3.80
2024-04-19T00:08:57.909Z,3.81
2024-04-19T00:11:51.462Z,3.83
2024-04-19T00:14:44.706Z,3.86
2024-04-19T00:17:37.577Z,3.85
2024-04-19T00:23:39.011Z,3.84
2024-04-19T00:26:32.057Z,3.83
2024-04-19T00:29:24.730Z,3.82
2024-04-19T00:32:17.767Z,3.82
2024-04-19T00:35:11.265Z,3.80
2024-04-19T00:38:04.841Z,3.80
2024-04-19T00:40:57.557Z,3.79
2024-04-19T00:43:50.397Z,3.79
2024-04-19T00:46:43.135Z,3.80
2024-04-19T00:49:56.495Z,3.81
2024-04-19T00:52:49.933Z,3.81
2024-04-19T00:55:43.770Z,3.82
2024-04-19T00:58:37.412Z,3.84
2024-04-19T01:01:31.112Z,3.84
2024-04-19T01:04:24.548Z,3.84
2024-04-19T01:07:17.275Z,3.84
2024-04-19T01:10:11.286Z,3.83
2024-04-19T01:13:06.157Z,3.81
2024-04-19T01:15:59.535Z,3.80
2024-04-19T01:19:12.439Z,3.77
2024-04-19T01:22:06.710Z,3.76
2024-04-19T01:25:00.402Z,3.75
2024-04-19T01:27:53.178Z,3.74
2024-04-19T01:30:47.438Z,3.72
2024-04-19T01:33:40.462Z,3.70
2024-04-19T01:36:33.870Z,3.70
2024-04-19T01:39:27.933Z,3.69
2024-04-19T01:42:21.034Z,3.69
2024-04-19T01:45:27.644Z,3.67
2024-04-19T01:48:20.882Z,3.65
2024-04-19T01:51:13.728Z,3.62
2024-04-19T01:54:06.617Z,3.58
2024-04-19T01:57:01.364Z,3.55
2024-04-19T01:59:54.223Z,3.48
2024-04-19T02:02:47.078Z,3.43
2024-04-19T02:05:40.321Z,3.34
2024-04-19T02:08:33.412Z,3.27
2024-04-19T02:11:26.404Z,3.18
2024-04-19T02:14:19.551Z,3.10
2024-04-19T02:17:12.341Z,3.00
2024-04-19T02:20:06.334Z,2.91
2024-04-19T02:22:59.024Z,2.83
2024-04-19T02:25:52.295Z,2.76
2024-04-19T02:29:03.514Z,2.68
2024-04-19T02:31:56.573Z,2.63
2024-04-19T02:34:50.244Z,2.59
2024-04-19T02:37:43.980Z,2.56
2024-04-19T02:40:37.080Z,2.53
2024-04-19T02:43:30.268Z,2.51
2024-04-19T02:46:26.183Z,2.47
2024-04-19T02:49:19.618Z,2.46
2024-04-19T02:52:12.313Z,2.44
2024-04-19T02:55:06.417Z,2.45
2024-04-19T02:57:59.397Z,2.49
2024-04-19T03:01:10.118Z,2.53
2024-04-19T03:04:03.897Z,2.55
2024-04-19T03:06:57.218Z,2.55
2024-04-19T03:09:51.767Z,2.57
2024-04-19T03:12:44.464Z,2.57
2024-04-19T03:15:38.907Z,2.58
2024-04-19T03:18:33.089Z,2.58
2024-04-19T03:21:26.098Z,2.58
2024-04-19T03:27:12.160Z,2.61
2024-04-19T03:30:28.398Z,2.63
2024-04-19T03:33:21.295Z,2.64
2024-04-19T03:36:14.458Z,2.64
2024-04-19T03:39:10.107Z,2.64
2024-04-19T03:42:03.761Z,2.65
2024-04-19T03:45:11.052Z,2.63
2024-04-19T03:48:04.227Z,2.64
2024-04-19T03:50:57.268Z,2.62
2024-04-19T03:53:50.232Z,2.59
2024-04-19T03:56:43.146Z,2.58
2024-04-19T03:59:36.522Z,2.57
2024-04-19T04:02:42.137Z,2.57
2024-04-19T04:05:35.560Z,2.60
2024-04-19T04:08:28.459Z,2.63
2024-04-19T04:11:21.707Z,2.69
2024-04-19T04:14:14.296Z,2.75
2024-04-19T04:17:07.349Z,2.79
2024-04-19T04:20:00.604Z,2.84
2024-04-19T04:22:53.626Z,2.87
2024-04-19T04:25:46.428Z,2.91
2024-04-19T04:28:39.453Z,2.94
2024-04-19T04:31:32.564Z,2.99
2024-04-19T04:34:25.708Z,3.06
2024-04-19T04:37:18.456Z,3.16
2024-04-19T04:40:12.900Z,3.35
2024-04-19T04:43:08.187Z,3.48
2024-04-19T04:46:02.401Z,3.59
2024-04-19T04:48:55.112Z,3.71
2024-04-19T04:51:48.561Z,4.00
2024-04-19T04:54:42.183Z,4.43
2024-04-19T04:57:38.266Z,4.97
2024-04-19T05:00:32.931Z,5.55
2024-04-19T05:03:26.048Z,6.24
2024-04-19T05:06:19.377Z,6.73
2024-04-19T05:09:12.271Z,7.22
2024-04-19T05:12:06.580Z,7.71
2024-04-19T05:15:00.199Z,8.23
2024-04-19T05:17:53.319Z,8.77
2024-04-19T05:20:47.470Z,9.29
2024-04-19T05:23:40.600Z,9.80
2024-04-19T05:26:33.839Z,10.22
2024-04-19T05:29:27.383Z,10.57
2024-04-19T05:32:20.896Z,10.91
2024-04-19T05:35:13.394Z,11.18
2024-04-19T05:38:06.491Z,11.06
2024-04-19T05:40:59.506Z,10.72
2024-04-19T05:43:52.649Z,10.48
2024-04-19T05:46:48.944Z,10.65
2024-04-19T05:49:41.928Z,10.97
2024-04-19T05:52:34.666Z,10.91
2024-04-19T05:55:27.699Z,10.47
2024-04-19T05:58:22.395Z,10.15
2024-04-19T06:01:15.398Z,9.96
2024-04-19T06:04:09.972Z,9.97
2024-04-19T06:07:02.890Z,10.39
2024-04-19T06:09:56.144Z,10.67
2024-04-19T06:12:49.766Z,10.70
2024-04-19T06:15:44.208Z,10.51
2024-04-19T06:18:37.475Z,10.19
2024-04-19T06:21:31.218Z,9.89
2024-04-19T06:24:25.196Z,9.53
2024-04-19T06:27:18.746Z,9.17
2024-04-19T06:30:13.619Z,9.17
2024-04-19T06:33:07.068Z,9.41
2024-04-19T06:36:02.527Z,9.59
2024-04-19T06:38:57.646Z,9.59
2024-04-19T06:41:50.663Z,9.53
2024-04-19T06:44:43.437Z,9.43
2024-04-19T06:47:39.338Z,9.45
2024-04-19T06:50:32.079Z,10.09
2024-04-19T06:53:24.890Z,10.98
2024-04-19T06:56:18.050Z,11.89
2024-04-19T06:59:12.171Z,12.69
2024-04-19T07:02:05.383Z,13.42
2024-04-19T07:04:58.584Z,13.93
2024-04-19T07:07:53.077Z,14.25
2024-04-19T07:10:45.622Z,14.41
2024-04-19T07:13:39.050Z,14.73
2024-04-19T07:16:31.714Z,15.07
2024-04-19T07:19:24.563Z,15.42
2024-04-19T07:22:18.668Z,15.67
2024-04-19T07:25:11.729Z,15.84
2024-04-19T07:28:05.031Z,15.73
2024-04-19T07:30:58.391Z,15.81
2024-04-19T07:33:51.399Z,16.15
2024-04-19T07:36:44.359Z,16.20
2024-04-19T07:39:37.490Z,16.20
2024-04-19T07:42:33.842Z,16.45
2024-04-19T07:45:32.390Z,16.68
2024-04-19T07:48:25.339Z,16.92
2024-04-19T07:51:18.449Z,17.17
2024-04-19T07:54:11.608Z,17.39
2024-04-19T07:57:05.062Z,17.00
2024-04-19T07:59:57.813Z,16.58
2024-04-19T08:02:50.440Z,16.22
2024-04-19T08:05:43.370Z,15.81
2024-04-19T08:08:36.262Z,15.58
2024-04-19T08:11:29.250Z,15.99
2024-04-19T08:14:21.998Z,16.45
2024-04-19T08:17:15.637Z,16.79
2024-04-19T08:20:09.939Z,16.95
2024-04-19T08:23:03.092Z,16.91
2024-04-19T08:25:56.247Z,16.95
2024-04-19T08:28:50.663Z,17.04
2024-04-19T08:31:44.541Z,17.27
2024-04-19T08:34:37.565Z,17.46
2024-04-19T08:37:32.520Z,17.47
2024-04-19T08:40:25.689Z,17.07
2024-04-19T08:43:19.888Z,16.44
2024-04-19T08:46:15.253Z,15.55
2024-04-19T08:49:12.603Z,14.78
2024-04-19T08:52:21.382Z,14.26
2024-04-19T08:55:20.838Z,13.78
2024-04-19T08:58:15.437Z,13.62
2024-04-19T09:01:09.077Z,13.57
2024-04-19T09:04:02.410Z,13.46
2024-04-19T09:06:55.612Z,13.31
2024-04-19T09:09:52.218Z,13.05
2024-04-19T09:12:45.189Z,12.88
2024-04-19T09:15:40.212Z,12.91
2024-04-19T09:18:34.004Z,13.02
2024-04-19T09:21:29.442Z,13.34
2024-04-19T09:24:22.431Z,13.56
2024-04-19T09:27:16.330Z,13.71
2024-04-19T09:30:13.267Z,13.86
2024-04-19T09:33:06.784Z,14.08
2024-04-19T09:35:59.721Z,14.20
2024-04-19T09:38:54.490Z,14.06
2024-04-19T09:41:50.404Z,13.73
2024-04-19T09:44:47.664Z,13.36
2024-04-19T09:47:43.837Z,13.16
2024-04-19T09:50:40.959Z,13.13
2024-04-19T09:53:46.399Z,13.31
2024-04-19T09:56:52.234Z,13.39
2024-04-19T09:59:45.631Z,13.49
2024-04-19T10:02:40.659Z,13.59
2024-04-19T10:05:33.573Z,13.74
2024-04-19T10:08:29.370Z,13.98
2024-04-19T10:11:24.166Z,14.20
2024-04-19T10:14:17.608Z,14.34
2024-04-19T10:17:11.927Z,14.51
2024-04-19T10:20:05.619Z,14.69
2024-04-19T10:22:59.978Z,14.86
2024-04-19T10:25:53.328Z,14.86
2024-04-19T10:28:56.719Z,14.57
2024-04-19T10:31:52.712Z,14.26
2024-04-19T10:34:45.942Z,14.36
2024-04-19T10:37:38.885Z,14.47
2024-04-19T10:40:31.962Z,14.35
2024-04-19T10:43:24.551Z,14.29
2024-04-19T10:46:18.635Z,14.32
2024-04-19T10:49:12.314Z,14.39
2024-04-19T10:52:05.654Z,14.37
2024-04-19T10:54:59.050Z,14.36
2024-04-19T10:57:51.734Z,14.35
2024-04-19T11:00:48.445Z,14.33
2024-04-19T11:03:44.414Z,14.21
2024-04-19T11:06:39.015Z,13.99
2024-04-19T11:09:32.196Z,13.90
2024-04-19T11:12:26.765Z,13.68
2024-04-19T11:15:21.508Z,13.48
2024-04-19T11:18:14.446Z,13.35
2024-04-19T11:21:11.863Z,13.38
2024-04-19T11:24:07.507Z,13.45
2024-04-19T11:27:00.032Z,13.58
2024-04-19T11:29:53.357Z,13.86
2024-04-19T11:32:46.175Z,14.23
2024-04-19T11:35:42.723Z,14.53
2024-04-19T11:38:35.818Z,14.74
2024-04-19T11:41:29.911Z,14.75
2024-04-19T11:44:22.868Z,14.61
2024-04-19T11:47:15.932Z,14.42
2024-04-19T11:50:12.353Z,14.26
2024-04-19T11:53:05.206Z,14.08
2024-04-19T11:55:57.729Z,14.01
2024-04-19T11:58:54.247Z,14.00
2024-04-19T12:01:47.043Z,13.99
2024-04-19T12:04:44.018Z,14.01
2024-04-19T12:07:38.888Z,14.23
2024-04-19T12:10:32.212Z,14.23
2024-04-19T12:14:12.539Z,14.03
2024-04-19T12:16:43.276Z,13.96
2024-04-19T12:19:41.554Z,13.96
2024-04-19T12:22:37.913Z,14.02
2024-04-19T12:25:35.316Z,14.15
2024-04-19T12:28:29.358Z,14.37
2024-04-19T12:31:23.779Z,14.44
2024-04-19T12:34:16.433Z,14.56
2024-04-19T12:37:09.708Z,14.61
2024-04-19T12:40:02.851Z,14.42
2024-04-19T12:42:55.583Z,14.13
2024-04-19T12:45:52.103Z,13.93
2024-04-19T12:48:46.002Z,13.86
2024-04-19T12:51:39.249Z,13.82
2024-04-19T12:54:32.032Z,13.92
2024-04-19T12:57:27.280Z,14.04
2024-04-19T13:00:21.740Z,14.09
2024-04-19T13:03:14.624Z,14.13
2024-04-19T13:06:08.315Z,14.22
2024-04-19T13:09:01.325Z,14.24
2024-04-19T13:11:54.210Z,14.05
2024-04-19T13:14:47.039Z,13.67
2024-04-19T13:17:42.078Z,13.34
2024-04-19T13:20:36.557Z,13.11
2024-04-19T13:23:29.057Z,12.86
2024-04-19T13:26:23.205Z,12.73
2024-04-19T13:29:16.299Z,12.58
2024-04-19T13:32:10.118Z,12.42
2024-04-19T13:35:03.228Z,12.27
2024-04-19T13:37:55.830Z,12.27
2024-04-19T13:40:48.718Z,12.30
2024-04-19T13:43:41.352Z,12.49
2024-04-19T13:46:34.132Z,12.70
2024-04-19T13:49:26.832Z,12.90
2024-04-19T13:52:19.954Z,13.06
2024-04-19T13:55:13.255Z,13.10
2024-04-19T13:58:07.477Z,13.16
2024-04-19T14:01:00.572Z,13.21
2024-04-19T14:03:55.979Z,13.18
2024-04-19T14:06:49.508Z,13.16
2024-04-19T14:09:45.914Z,13.17
2024-04-19T14:12:40.387Z,13.13
2024-04-19T14:15:38.710Z,13.06
2024-04-19T14:18:32.462Z,12.98
2024-04-19T14:21:25.679Z,12.87
2024-04-19T14:24:18.835Z,12.86
2024-04-19T14:27:11.841Z,12.86
2024-04-19T14:30:05.922Z,12.89
2024-04-19T14:32:59.293Z,12.84
2024-04-19T14:35:52.052Z,12.90
2024-04-19T14:38:44.768Z,12.98
2024-04-19T14:41:37.438Z,13.01
2024-04-19T14:44:30.621Z,13.10
2024-04-19T14:47:23.851Z,13.17
2024-04-19T14:50:16.678Z,13.15
2024-04-19T14:53:10.835Z,13.10
2024-04-19T14:56:04.144Z,13.04
2024-04-19T14:59:03.370Z,13.02
2024-04-19T15:02:04.539Z,13.00
2024-04-19T15:04:57.169Z,13.02
2024-04-19T15:07:51.845Z,12.97
2024-04-19T15:10:44.845Z,12.90
2024-04-19T15:13:37.775Z,12.79
2024-04-19T15:16:30.508Z,12.70
2024-04-19T15:19:23.606Z,12.64
2024-04-19T15:22:17.049Z,12.59
2024-04-19T15:25:12.285Z,12.49
2024-04-19T15:28:07.282Z,12.36
2024-04-19T15:31:00.739Z,12.23
2024-04-19T15:33:54.017Z,12.14
2024-04-19T15:36:49.206Z,12.07
2024-04-19T15:39:46.300Z,12.02
2024-04-19T15:42:39.622Z,11.99
2024-04-19T15:45:32.884Z,12.00
2024-04-19T15:48:25.766Z,12.04
2024-04-19T15:51:18.656Z,12.06
2024-04-19T15:54:11.530Z,11.97
2024-04-19T15:57:05.060Z,11.86
2024-04-19T15:59:59.449Z,11.75
2024-04-19T16:02:58.025Z,11.70
2024-04-19T16:05:50.831Z,11.61
2024-04-19T16:08:43.202Z,11.49
2024-04-19T16:11:36.815Z,11.41
2024-04-19T16:14:29.819Z,11.31
2024-04-19T16:17:23.178Z,11.20
2024-04-19T16:20:17.843Z,11.13
2024-04-19T16:23:10.739Z,11.06
2024-04-19T16:26:03.711Z,11.09
2024-04-19T16:28:56.968Z,11.13
2024-04-19T16:31:49.806Z,11.15
2024-04-19T16:34:43.060Z,11.19
2024-04-19T16:37:36.585Z,11.20
2024-04-19T16:40:29.326Z,11.18
2024-04-19T16:43:22.993Z,11.14
2024-04-19T16:46:15.799Z,11.06
2024-04-19T16:49:08.529Z,11.00
2024-04-19T16:52:01.233Z,10.89
2024-04-19T16:54:54.672Z,10.82
2024-04-19T16:57:47.801Z,10.75
2024-04-19T17:00:41.218Z,10.69
2024-04-19T17:03:34.208Z,10.62
2024-04-19T17:06:27.225Z,10.56
2024-04-19T17:09:19.907Z,10.53
2024-04-19T17:12:13.565Z,10.49
2024-04-19T17:15:07.133Z,10.44
2024-04-19T17:18:01.591Z,10.36
2024-04-19T17:20:54.993Z,10.27
2024-04-19T17:23:49.991Z,10.16
2024-04-19T17:26:42.850Z,10.09
2024-04-19T17:29:37.894Z,10.01
2024-04-19T17:32:32.448Z,9.91
2024-04-19T17:35:25.991Z,9.81
2024-04-19T17:38:22.334Z,9.72
2024-04-19T17:41:15.444Z,9.62
2024-04-19T17:44:08.847Z,9.53
2024-04-19T17:47:02.176Z,9.45
2024-04-19T17:49:55.279Z,9.38
2024-04-19T17:52:49.009Z,9.31
2024-04-19T17:55:50.428Z,9.23
2024-04-19T17:58:43.125Z,9.17
2024-04-19T18:01:38.729Z,9.12
2024-04-19T18:04:31.895Z,9.08
2024-04-19T18:07:25.230Z,9.04
2024-04-19T18:10:22.390Z,8.99
2024-04-19T18:13:15.224Z,8.93
2024-04-19T18:16:10.013Z,8.90
2024-04-19T18:19:04.558Z,8.83
2024-04-19T18:21:57.782Z,8.77
2024-04-19T18:24:51.169Z,8.69
2024-04-19T18:27:44.302Z,8.61
2024-04-19T18:30:38.210Z,8.49
2024-04-19T18:33:31.147Z,8.40
2024-04-19T18:36:25.198Z,8.29
2024-04-19T18:39:18.356Z,8.18
2024-04-19T18:42:11.706Z,8.08
2024-04-19T18:45:04.812Z,7.97
2024-04-19T18:47:58.052Z,7.87
2024-04-19T18:50:51.254Z,7.79
2024-04-19T18:53:44.387Z,7.71
2024-04-19T18:56:37.434Z,7.62
2024-04-19T18:59:32.769Z,7.55
2024-04-19T19:02:26.011Z,7.49
2024-04-19T19:05:20.151Z,7.43
2024-04-19T19:08:14.531Z,7.37
2024-04-19T19:11:15.638Z,7.31
2024-04-19T19:14:09.755Z,7.26
2024-04-19T19:17:03.240Z,7.23
2024-04-19T19:19:58.030Z,7.19
2024-04-19T19:22:51.511Z,7.14
2024-04-19T19:25:44.579Z,7.11
2024-04-19T19:28:38.310Z,7.07
2024-04-19T19:31:31.858Z,7.04
2024-04-19T19:34:25.374Z,6.98
2024-04-19T19:37:22.828Z,6.94
2024-04-19T19:40:16.864Z,6.89
2024-04-19T19:43:12.372Z,6.83
2024-04-19T19:46:09.138Z,6.78
2024-04-19T19:49:02.239Z,6.74
2024-04-19T19:51:55.224Z,6.70
2024-04-19T19:54:48.068Z,6.67
2024-04-19T19:57:41.103Z,6.62
2024-04-19T20:00:51.627Z,6.60
2024-04-19T20:04:02.456Z,6.57
2024-04-19T20:06:55.532Z,6.60
2024-04-19T20:09:51.385Z,6.61
2024-04-19T20:12:44.636Z,6.66
2024-04-19T20:15:37.703Z,6.70
2024-04-19T20:18:30.790Z,6.73
2024-04-19T20:21:24.087Z,6.78
2024-04-19T20:24:16.910Z,6.81
2024-04-19T20:27:10.283Z,6.87
2024-04-19T20:30:03.826Z,6.88
2024-04-19T20:32:56.769Z,6.91
2024-04-19T20:35:50.045Z,6.92
2024-04-19T20:38:43.205Z,6.94
2024-04-19T20:41:36.044Z,6.96
2024-04-19T20:44:29.110Z,6.98
2024-04-19T20:47:23.076Z,7.00
2024-04-19T20:50:16.536Z,7.03
2024-04-19T20:53:09.825Z,7.05
2024-04-19T20:56:04.112Z,7.09
2024-04-19T20:58:56.770Z,7.11
2024-04-19T21:01:49.798Z,7.13
2024-04-19T21:04:43.010Z,7.15
2024-04-19T21:07:36.681Z,7.17
2024-04-19T21:10:29.711Z,7.20
2024-04-19T21:13:22.795Z,7.20
2024-04-19T21:16:16.982Z,7.20
2024-04-19T21:19:10.264Z,7.18
2024-04-19T21:22:03.349Z,7.18
2024-04-19T21:24:56.822Z,7.16
2024-04-19T21:27:51.675Z,7.15
2024-04-19T21:30:44.938Z,7.16
2024-04-19T21:33:39.121Z,7.19
2024-04-19T21:36:36.230Z,7.21
2024-04-19T21:39:29.355Z,7.23
2024-04-19T21:42:22.239Z,7.27
2024-04-19T21:45:17.279Z,7.28
2024-04-19T21:48:11.926Z,7.30
2024-04-19T21:51:05.954Z,7.31
2024-04-19T21:53:58.790Z,7.29
2024-04-19T21:56:51.564Z,7.30
2024-04-19T21:59:44.287Z,7.29
2024-04-19T22:02:37.305Z,7.27
2024-04-19T22:05:29.895Z,7.28
2024-04-19T22:08:22.393Z,7.28
2024-04-19T22:11:15.423Z,7.28
2024-04-19T22:14:08.488Z,7.25
2024-04-19T22:17:02.058Z,7.22
2024-04-19T22:19:56.443Z,7.19
2024-04-19T22:22:50.996Z,7.16
2024-04-19T22:25:43.974Z,7.15
2024-04-19T22:28:38.167Z,7.14
2024-04-19T22:31:31.197Z,7.12
2024-04-19T22:34:24.160Z,7.08
2024-04-19T22:37:16.788Z,7.08
2024-04-19T22:40:12.257Z,7.08
2024-04-19T22:43:05.295Z,7.09
2024-04-19T22:45:58.408Z,7.09
2024-04-19T22:48:52.257Z,7.10
2024-04-19T22:51:44.960Z,7.11
2024-04-19T22:54:38.073Z,7.12
2024-04-19T22:57:32.313Z,7.12
2024-04-19T23:00:26.924Z,7.12
2024-04-19T23:03:20.676Z,7.13
2024-04-19T23:06:14.373Z,7.13
2024-04-19T23:09:09.250Z,7.13
2024-04-19T23:12:02.312Z,7.13
2024-04-19T23:14:55.499Z,7.13
2024-04-19T23:17:48.822Z,7.14
2024-04-19T23:20:42.107Z,7.15
2024-04-19T23:23:38.076Z,7.15
2024-04-19T23:26:30.841Z,7.14
2024-04-19T23:29:23.316Z,7.15
2024-04-19T23:32:16.175Z,7.15
2024-04-19T23:35:09.982Z,7.16
2024-04-19T23:38:02.620Z,7.16
2024-04-19T23:40:56.543Z,7.17
2024-04-19T23:43:49.612Z,7.16
2024-04-19T23:46:42.180Z,7.18
2024-04-19T23:49:36.761Z,7.16
2024-04-19T23:52:30.127Z,7.14
2024-04-19T23:55:23.610Z,7.15
2024-04-19T23:58:16.277Z,7.16
